Terminal Aerodrome Forecast
Issued by NWS

Home | Current Version | Previous Version | Graphics & Text | Print | Product List | Glossary On
Versions: 1 2 3 4 5 6 7 8 9 10 11 12 13 14 15 16 17 18 19 20
000
FTUS43 KMPX 240300 AAA
TAFRNH
TAF AMD
KRNH 240302Z 2403/2424 15004KT 3SM BR SCT005
      TEMPO 2403/2406 1 1/2SM BR BKN005
     FM240700 16003KT 1 1/2SM BR OVC005
     FM241400 17005KT P6SM SCT010
     FM241700 20009KT P6SM SCT035=

USA.gov is the U.S. government's official web portal to all federal, state and local government web resources and services.